Nearby METAR Reports

 

NZWN - Wellington Intl, New Zealand
Distance from station: SSE 156km
Updated: Sun, 18-Feb-2018 6:00pm NZDT
Mostly cloudy
Mostly cloudy
 Wind from N
Wind: N 41 km/h
Temperature: 23°C
Dew Point: 18°C
Humidity: 74%
Barometer: 1013 hPa
Clouds: Mostly cloudy
Visibility: 10 km
Cloud details: Mostly cloudy 671 m
Mostly cloudy 823 m
2018/02/18 05:00 NZWN 180500Z AUTO 36022KT 9999 BKN022/// BKN027/// 23/18 Q1013 NOSIG
NZAA - Auckland Intl Ar, New Zealand
Distance from station: N 334km
Updated: Sun, 18-Feb-2018 6:00pm NZDT
Overcast
Overcast
 Wind from N
Wind: N 13 km/h
Temperature: 25°C
Dew Point: 19°C
Humidity: 69%
Barometer: 1016 hPa
Clouds: Overcast
Visibility: 10 km
Cloud details: Overcast 1524 m
2018/02/18 05:00 NZAA 180500Z AUTO 35007KT 9999 OVC050/// 25/19 Q1016 NOSIG
 
NZWP - Whenuapai (nz-Af, New Zealand
Distance from station: N 359km
Updated: Thu, 14-Dec-2017 8:00pm NZDT
NOT Current
Partly cloudy
Partly cloudy
 Wind from NNE
Wind: NNE 11 km/h
Temperature: 21°C
Dew Point: 12°C
Humidity: 57%
Barometer: 1013 hPa
Clouds: Partly cloudy
Cloud details: Partly cloudy 1829 m
2017/12/14 07:00 NZWP 140700Z 02006KT 30KM SCT060 21/12 Q1013 NOSIG
NZCH - Christchurch Int, New Zealand
Distance from station: SSW 412km
Updated: Sun, 18-Feb-2018 6:00pm NZDT
Clear
Clear
 Wind from ENE
Wind: ENE 7 km/h
Temperature: 28°C
Dew Point: 8°C
Humidity: 28%
Barometer: 1008 hPa
Clouds: Clear
Visibility: 10 km
2018/02/18 05:00 NZCH 180500Z AUTO 06004KT 300V160 9999 NCD 28/08 Q1008 BECMG 32015G30KT

Metar display script from Saratoga-Weather.org